sensor_id;sensor_type;location;lat;lon;timestamp;P1;durP1;ratioP1;P2;durP2;ratioP2
48052;SDS011;33824;51.600;5.718;2023-05-19T00:01:08;3.83;;;2.95;;
48052;SDS011;33824;51.600;5.718;2023-05-19T00:03:35;6.10;;;3.03;;
48052;SDS011;33824;51.600;5.718;2023-05-19T00:06:05;8.05;;;2.80;;
48052;SDS011;33824;51.600;5.718;2023-05-19T00:08:34;9.52;;;2.33;;
48052;SDS011;33824;51.600;5.718;2023-05-19T00:11:02;4.32;;;2.22;;
48052;SDS011;33824;51.600;5.718;2023-05-19T00:13:29;4.97;;;2.38;;
48052;SDS011;33824;51.600;5.718;2023-05-19T00:15:55;3.75;;;2.35;;
48052;SDS011;33824;51.600;5.718;2023-05-19T00:18:21;5.53;;;2.65;;
48052;SDS011;33824;51.600;5.718;2023-05-19T00:20:47;6.43;;;2.97;;
48052;SDS011;33824;51.600;5.718;2023-05-19T00:23:13;3.65;;;2.15;;
48052;SDS011;33824;51.600;5.718;2023-05-19T00:25:40;5.45;;;3.72;;
48052;SDS011;33824;51.600;5.718;2023-05-19T00:28:06;5.70;;;2.25;;
48052;SDS011;33824;51.600;5.718;2023-05-19T00:30:31;5.80;;;2.63;;
48052;SDS011;33824;51.600;5.718;2023-05-19T00:32:57;6.10;;;2.88;;
48052;SDS011;33824;51.600;5.718;2023-05-19T00:35:23;4.60;;;2.63;;
48052;SDS011;33824;51.600;5.718;2023-05-19T00:37:49;7.75;;;2.88;;
48052;SDS011;33824;51.600;5.718;2023-05-19T00:40:14;6.78;;;2.80;;
48052;SDS011;33824;51.600;5.718;2023-05-19T00:42:40;8.68;;;2.30;;
48052;SDS011;33824;51.600;5.718;2023-05-19T00:45:06;5.13;;;2.75;;
48052;SDS011;33824;51.600;5.718;2023-05-19T00:47:32;3.80;;;2.10;;
48052;SDS011;33824;51.600;5.718;2023-05-19T00:49:58;5.28;;;2.50;;
48052;SDS011;33824;51.600;5.718;2023-05-19T00:52:24;7.15;;;2.65;;
48052;SDS011;33824;51.600;5.718;2023-05-19T00:54:51;4.57;;;2.45;;
48052;SDS011;33824;51.600;5.718;2023-05-19T00:57:18;4.38;;;3.08;;
48052;SDS011;33824;51.600;5.718;2023-05-19T00:59:45;5.55;;;2.63;;
48052;SDS011;33824;51.600;5.718;2023-05-19T01:02:13;3.80;;;2.53;;
48052;SDS011;33824;51.600;5.718;2023-05-19T01:04:39;3.67;;;2.08;;
48052;SDS011;33824;51.600;5.718;2023-05-19T01:07:06;6.47;;;2.58;;
48052;SDS011;33824;51.600;5.718;2023-05-19T01:09:32;5.68;;;2.55;;
48052;SDS011;33824;51.600;5.718;2023-05-19T01:12:01;3.45;;;2.25;;
48052;SDS011;33824;51.600;5.718;2023-05-19T01:14:27;2.55;;;2.08;;
48052;SDS011;33824;51.600;5.718;2023-05-19T01:16:54;7.72;;;2.50;;
48052;SDS011;33824;51.600;5.718;2023-05-19T01:30:12;3.53;;;2.30;;
48052;SDS011;33824;51.600;5.718;2023-05-19T01:32:49;6.15;;;2.75;;
48052;SDS011;33824;51.600;5.718;2023-05-19T01:35:18;3.97;;;3.08;;
48052;SDS011;33824;51.600;5.718;2023-05-19T01:37:45;5.03;;;2.58;;
48052;SDS011;33824;51.600;5.718;2023-05-19T01:40:11;4.82;;;2.38;;
48052;SDS011;33824;51.600;5.718;2023-05-19T01:42:38;7.43;;;2.30;;
48052;SDS011;33824;51.600;5.718;2023-05-19T01:45:06;3.90;;;2.20;;
48052;SDS011;33824;51.600;5.718;2023-05-19T01:47:35;4.72;;;2.88;;
48052;SDS011;33824;51.600;5.718;2023-05-19T01:50:04;4.97;;;1.90;;
48052;SDS011;33824;51.600;5.718;2023-05-19T01:52:30;6.88;;;2.80;;
48052;SDS011;33824;51.600;5.718;2023-05-19T01:54:55;4.50;;;2.33;;
48052;SDS011;33824;51.600;5.718;2023-05-19T01:57:23;4.10;;;2.28;;
48052;SDS011;33824;51.600;5.718;2023-05-19T02:02:36;4.28;;;2.20;;
48052;SDS011;33824;51.600;5.718;2023-05-19T02:05:26;4.57;;;2.03;;
48052;SDS011;33824;51.600;5.718;2023-05-19T02:08:05;5.93;;;2.35;;
48052;SDS011;33824;51.600;5.718;2023-05-19T02:10:41;5.47;;;2.25;;
48052;SDS011;33824;51.600;5.718;2023-05-19T02:13:14;3.05;;;2.10;;
48052;SDS011;33824;51.600;5.718;2023-05-19T02:15:44;5.65;;;2.72;;
48052;SDS011;33824;51.600;5.718;2023-05-19T02:18:11;6.70;;;2.10;;
48052;SDS011;33824;51.600;5.718;2023-05-19T02:20:42;5.97;;;2.35;;
48052;SDS011;33824;51.600;5.718;2023-05-19T02:23:07;5.30;;;2.28;;
48052;SDS011;33824;51.600;5.718;2023-05-19T02:25:33;7.00;;;2.58;;
48052;SDS011;33824;51.600;5.718;2023-05-19T02:27:59;5.40;;;2.45;;
48052;SDS011;33824;51.600;5.718;2023-05-19T02:30:24;3.28;;;2.10;;
48052;SDS011;33824;51.600;5.718;2023-05-19T02:32:50;6.30;;;2.55;;
48052;SDS011;33824;51.600;5.718;2023-05-19T02:35:18;5.50;;;2.15;;
48052;SDS011;33824;51.600;5.718;2023-05-19T02:37:45;5.30;;;2.17;;
48052;SDS011;33824;51.600;5.718;2023-05-19T02:40:10;4.10;;;2.33;;
48052;SDS011;33824;51.600;5.718;2023-05-19T02:42:36;4.82;;;1.95;;
48052;SDS011;33824;51.600;5.718;2023-05-19T02:45:02;4.00;;;2.22;;
48052;SDS011;33824;51.600;5.718;2023-05-19T02:47:28;13.75;;;2.53;;
48052;SDS011;33824;51.600;5.718;2023-05-19T02:49:53;3.22;;;2.38;;
48052;SDS011;33824;51.600;5.718;2023-05-19T02:52:19;3.90;;;2.05;;
48052;SDS011;33824;51.600;5.718;2023-05-19T02:54:44;5.68;;;2.38;;
48052;SDS011;33824;51.600;5.718;2023-05-19T02:57:10;5.75;;;2.35;;
48052;SDS011;33824;51.600;5.718;2023-05-19T02:59:35;4.55;;;2.67;;
48052;SDS011;33824;51.600;5.718;2023-05-19T03:02:02;5.15;;;2.60;;
48052;SDS011;33824;51.600;5.718;2023-05-19T03:04:28;8.23;;;2.63;;
48052;SDS011;33824;51.600;5.718;2023-05-19T03:06:54;4.60;;;2.22;;
48052;SDS011;33824;51.600;5.718;2023-05-19T03:09:19;3.38;;;2.20;;
48052;SDS011;33824;51.600;5.718;2023-05-19T03:11:45;3.17;;;2.28;;
48052;SDS011;33824;51.600;5.718;2023-05-19T03:14:11;3.70;;;2.30;;
48052;SDS011;33824;51.600;5.718;2023-05-19T03:16:37;3.20;;;1.92;;
48052;SDS011;33824;51.600;5.718;2023-05-19T03:19:05;3.90;;;2.08;;
48052;SDS011;33824;51.600;5.718;2023-05-19T03:21:31;7.00;;;2.08;;
48052;SDS011;33824;51.600;5.718;2023-05-19T03:23:58;3.97;;;2.10;;
48052;SDS011;33824;51.600;5.718;2023-05-19T03:26:24;5.43;;;2.10;;
48052;SDS011;33824;51.600;5.718;2023-05-19T03:28:50;6.22;;;2.30;;
48052;SDS011;33824;51.600;5.718;2023-05-19T03:31:16;7.05;;;2.28;;
48052;SDS011;33824;51.600;5.718;2023-05-19T03:33:41;6.72;;;2.17;;
48052;SDS011;33824;51.600;5.718;2023-05-19T03:36:07;4.18;;;2.05;;
48052;SDS011;33824;51.600;5.718;2023-05-19T03:38:32;4.65;;;2.13;;
48052;SDS011;33824;51.600;5.718;2023-05-19T03:40:58;3.13;;;1.88;;
48052;SDS011;33824;51.600;5.718;2023-05-19T03:43:24;5.03;;;1.95;;
48052;SDS011;33824;51.600;5.718;2023-05-19T03:45:50;3.92;;;2.00;;
48052;SDS011;33824;51.600;5.718;2023-05-19T03:48:15;7.30;;;3.08;;
48052;SDS011;33824;51.600;5.718;2023-05-19T03:50:41;8.07;;;3.15;;
48052;SDS011;33824;51.600;5.718;2023-05-19T03:53:08;4.32;;;2.22;;
48052;SDS011;33824;51.600;5.718;2023-05-19T03:55:34;5.13;;;2.22;;
48052;SDS011;33824;51.600;5.718;2023-05-19T03:58:01;2.70;;;1.95;;
48052;SDS011;33824;51.600;5.718;2023-05-19T04:00:27;3.63;;;1.80;;
48052;SDS011;33824;51.600;5.718;2023-05-19T04:02:53;4.47;;;2.20;;
48052;SDS011;33824;51.600;5.718;2023-05-19T04:05:19;6.47;;;2.15;;
48052;SDS011;33824;51.600;5.718;2023-05-19T04:07:44;4.00;;;2.17;;
48052;SDS011;33824;51.600;5.718;2023-05-19T04:10:11;7.45;;;2.30;;
48052;SDS011;33824;51.600;5.718;2023-05-19T04:12:36;3.70;;;2.08;;
48052;SDS011;33824;51.600;5.718;2023-05-19T04:15:02;2.95;;;1.80;;
48052;SDS011;33824;51.600;5.718;2023-05-19T04:17:29;6.25;;;2.55;;
48052;SDS011;33824;51.600;5.718;2023-05-19T04:19:55;5.30;;;2.15;;
48052;SDS011;33824;51.600;5.718;2023-05-19T04:22:21;13.52;;;2.35;;
48052;SDS011;33824;51.600;5.718;2023-05-19T04:24:46;4.00;;;1.98;;
48052;SDS011;33824;51.600;5.718;2023-05-19T04:27:13;7.05;;;2.42;;
48052;SDS011;33824;51.600;5.718;2023-05-19T04:29:40;3.80;;;2.05;;
48052;SDS011;33824;51.600;5.718;2023-05-19T04:32:06;7.82;;;3.55;;
48052;SDS011;33824;51.600;5.718;2023-05-19T04:34:33;3.33;;;2.08;;
48052;SDS011;33824;51.600;5.718;2023-05-19T04:36:59;5.40;;;1.75;;
48052;SDS011;33824;51.600;5.718;2023-05-19T04:39:26;9.43;;;2.65;;
48052;SDS011;33824;51.600;5.718;2023-05-19T04:41:51;5.60;;;2.22;;
48052;SDS011;33824;51.600;5.718;2023-05-19T04:44:18;7.55;;;2.75;;
48052;SDS011;33824;51.600;5.718;2023-05-19T04:46:44;3.95;;;2.40;;
48052;SDS011;33824;51.600;5.718;2023-05-19T04:49:10;5.68;;;2.50;;
48052;SDS011;33824;51.600;5.718;2023-05-19T04:51:39;5.40;;;2.00;;
48052;SDS011;33824;51.600;5.718;2023-05-19T04:54:10;4.35;;;1.92;;
48052;SDS011;33824;51.600;5.718;2023-05-19T04:56:35;4.68;;;2.45;;
48052;SDS011;33824;51.600;5.718;2023-05-19T04:59:01;5.97;;;2.53;;
48052;SDS011;33824;51.600;5.718;2023-05-19T05:01:27;2.75;;;1.80;;
48052;SDS011;33824;51.600;5.718;2023-05-19T05:03:55;3.50;;;1.92;;
48052;SDS011;33824;51.600;5.718;2023-05-19T05:06:23;3.78;;;2.03;;
48052;SDS011;33824;51.600;5.718;2023-05-19T05:08:49;6.65;;;2.20;;
48052;SDS011;33824;51.600;5.718;2023-05-19T05:11:15;5.15;;;1.73;;
48052;SDS011;33824;51.600;5.718;2023-05-19T05:13:41;6.10;;;2.33;;
48052;SDS011;33824;51.600;5.718;2023-05-19T05:16:07;6.10;;;3.05;;
48052;SDS011;33824;51.600;5.718;2023-05-19T05:18:34;3.58;;;2.28;;
48052;SDS011;33824;51.600;5.718;2023-05-19T05:21:03;5.57;;;2.40;;
48052;SDS011;33824;51.600;5.718;2023-05-19T05:23:29;8.73;;;2.92;;
48052;SDS011;33824;51.600;5.718;2023-05-19T05:25:55;5.95;;;2.20;;
48052;SDS011;33824;51.600;5.718;2023-05-19T05:28:21;6.93;;;2.35;;
48052;SDS011;33824;51.600;5.718;2023-05-19T05:30:46;6.63;;;2.35;;
48052;SDS011;33824;51.600;5.718;2023-05-19T05:33:13;2.40;;;1.80;;
48052;SDS011;33824;51.600;5.718;2023-05-19T05:35:39;6.72;;;2.97;;
48052;SDS011;33824;51.600;5.718;2023-05-19T05:38:05;3.22;;;2.45;;
48052;SDS011;33824;51.600;5.718;2023-05-19T05:40:30;3.38;;;2.22;;
48052;SDS011;33824;51.600;5.718;2023-05-19T05:42:56;4.30;;;2.70;;
48052;SDS011;33824;51.600;5.718;2023-05-19T05:45:23;6.25;;;2.63;;
48052;SDS011;33824;51.600;5.718;2023-05-19T05:47:49;8.60;;;2.50;;
48052;SDS011;33824;51.600;5.718;2023-05-19T05:50:15;4.90;;;2.80;;
48052;SDS011;33824;51.600;5.718;2023-05-19T05:52:44;6.25;;;3.20;;
48052;SDS011;33824;51.600;5.718;2023-05-19T05:55:11;4.95;;;2.15;;
48052;SDS011;33824;51.600;5.718;2023-05-19T05:57:38;6.00;;;2.47;;
48052;SDS011;33824;51.600;5.718;2023-05-19T06:00:06;3.88;;;2.05;;
48052;SDS011;33824;51.600;5.718;2023-05-19T06:02:48;3.88;;;2.15;;
48052;SDS011;33824;51.600;5.718;2023-05-19T06:05:14;4.30;;;2.63;;
48052;SDS011;33824;51.600;5.718;2023-05-19T06:07:41;5.32;;;2.40;;
48052;SDS011;33824;51.600;5.718;2023-05-19T06:10:07;12.00;;;2.20;;
48052;SDS011;33824;51.600;5.718;2023-05-19T06:12:33;5.20;;;2.17;;
48052;SDS011;33824;51.600;5.718;2023-05-19T06:15:00;3.60;;;2.30;;
48052;SDS011;33824;51.600;5.718;2023-05-19T06:17:27;3.28;;;2.40;;
48052;SDS011;33824;51.600;5.718;2023-05-19T06:19:53;3.60;;;2.63;;
48052;SDS011;33824;51.600;5.718;2023-05-19T06:22:18;5.10;;;2.03;;
48052;SDS011;33824;51.600;5.718;2023-05-19T06:24:44;5.82;;;2.35;;
48052;SDS011;33824;51.600;5.718;2023-05-19T06:27:10;3.15;;;2.13;;
48052;SDS011;33824;51.600;5.718;2023-05-19T06:29:35;3.17;;;1.92;;
48052;SDS011;33824;51.600;5.718;2023-05-19T06:32:01;6.03;;;1.95;;
48052;SDS011;33824;51.600;5.718;2023-05-19T06:34:26;3.70;;;2.22;;
48052;SDS011;33824;51.600;5.718;2023-05-19T06:36:52;2.78;;;2.10;;
48052;SDS011;33824;51.600;5.718;2023-05-19T06:39:17;4.15;;;2.30;;
48052;SDS011;33824;51.600;5.718;2023-05-19T06:41:43;7.20;;;2.17;;
48052;SDS011;33824;51.600;5.718;2023-05-19T06:44:09;8.20;;;2.85;;
48052;SDS011;33824;51.600;5.718;2023-05-19T06:46:34;5.38;;;2.03;;
48052;SDS011;33824;51.600;5.718;2023-05-19T06:49:00;2.90;;;2.08;;
48052;SDS011;33824;51.600;5.718;2023-05-19T06:51:26;4.88;;;2.33;;
48052;SDS011;33824;51.600;5.718;2023-05-19T06:53:51;4.35;;;2.20;;
48052;SDS011;33824;51.600;5.718;2023-05-19T06:56:17;3.08;;;1.50;;
48052;SDS011;33824;51.600;5.718;2023-05-19T06:58:43;3.95;;;2.47;;
48052;SDS011;33824;51.600;5.718;2023-05-19T07:01:09;3.85;;;2.00;;
48052;SDS011;33824;51.600;5.718;2023-05-19T07:03:35;3.60;;;2.05;;
48052;SDS011;33824;51.600;5.718;2023-05-19T07:06:01;3.17;;;2.05;;
48052;SDS011;33824;51.600;5.718;2023-05-19T07:08:27;7.55;;;2.38;;
48052;SDS011;33824;51.600;5.718;2023-05-19T07:10:53;4.72;;;2.22;;
48052;SDS011;33824;51.600;5.718;2023-05-19T07:13:20;5.05;;;2.25;;
48052;SDS011;33824;51.600;5.718;2023-05-19T07:15:46;7.15;;;2.53;;
48052;SDS011;33824;51.600;5.718;2023-05-19T07:18:13;6.82;;;2.00;;
48052;SDS011;33824;51.600;5.718;2023-05-19T07:20:39;3.85;;;1.80;;
48052;SDS011;33824;51.600;5.718;2023-05-19T07:23:05;4.30;;;1.90;;
48052;SDS011;33824;51.600;5.718;2023-05-19T07:25:31;2.65;;;1.85;;
48052;SDS011;33824;51.600;5.718;2023-05-19T07:27:57;4.85;;;2.22;;
48052;SDS011;33824;51.600;5.718;2023-05-19T07:30:26;3.53;;;2.15;;
48052;SDS011;33824;51.600;5.718;2023-05-19T07:32:52;3.58;;;1.75;;
48052;SDS011;33824;51.600;5.718;2023-05-19T07:35:18;5.90;;;1.92;;
48052;SDS011;33824;51.600;5.718;2023-05-19T07:37:46;7.25;;;1.92;;
48052;SDS011;33824;51.600;5.718;2023-05-19T07:40:13;3.67;;;1.77;;
48052;SDS011;33824;51.600;5.718;2023-05-19T07:42:39;4.38;;;1.60;;
48052;SDS011;33824;51.600;5.718;2023-05-19T07:45:05;2.97;;;1.75;;
48052;SDS011;33824;51.600;5.718;2023-05-19T07:47:31;1.88;;;1.52;;
48052;SDS011;33824;51.600;5.718;2023-05-19T07:49:56;4.53;;;1.80;;
48052;SDS011;33824;51.600;5.718;2023-05-19T07:52:22;4.93;;;1.67;;
48052;SDS011;33824;51.600;5.718;2023-05-19T07:54:48;8.07;;;1.83;;
48052;SDS011;33824;51.600;5.718;2023-05-19T07:57:13;4.82;;;1.33;;
48052;SDS011;33824;51.600;5.718;2023-05-19T07:59:39;8.98;;;1.58;;
48052;SDS011;33824;51.600;5.718;2023-05-19T08:02:04;3.30;;;1.35;;
48052;SDS011;33824;51.600;5.718;2023-05-19T08:04:30;5.43;;;2.03;;
48052;SDS011;33824;51.600;5.718;2023-05-19T08:06:56;3.97;;;1.50;;
48052;SDS011;33824;51.600;5.718;2023-05-19T08:09:22;3.78;;;1.95;;
48052;SDS011;33824;51.600;5.718;2023-05-19T08:11:48;8.15;;;2.08;;
48052;SDS011;33824;51.600;5.718;2023-05-19T08:14:14;8.40;;;1.95;;
48052;SDS011;33824;51.600;5.718;2023-05-19T08:16:39;2.47;;;1.30;;
48052;SDS011;33824;51.600;5.718;2023-05-19T08:19:07;6.55;;;1.60;;
48052;SDS011;33824;51.600;5.718;2023-05-19T08:21:33;3.78;;;1.20;;
48052;SDS011;33824;51.600;5.718;2023-05-19T08:24:00;4.47;;;1.58;;
48052;SDS011;33824;51.600;5.718;2023-05-19T08:26:26;2.92;;;1.42;;
48052;SDS011;33824;51.600;5.718;2023-05-19T08:28:52;4.43;;;1.75;;
48052;SDS011;33824;51.600;5.718;2023-05-19T08:31:18;8.68;;;1.17;;
48052;SDS011;33824;51.600;5.718;2023-05-19T08:33:44;2.90;;;1.30;;
48052;SDS011;33824;51.600;5.718;2023-05-19T08:36:09;3.58;;;1.40;;
48052;SDS011;33824;51.600;5.718;2023-05-19T08:38:35;3.08;;;1.10;;
48052;SDS011;33824;51.600;5.718;2023-05-19T08:41:01;2.20;;;1.13;;
48052;SDS011;33824;51.600;5.718;2023-05-19T08:43:27;3.03;;;1.10;;
48052;SDS011;33824;51.600;5.718;2023-05-19T08:45:52;2.30;;;1.10;;
48052;SDS011;33824;51.600;5.718;2023-05-19T08:48:20;3.80;;;1.20;;
48052;SDS011;33824;51.600;5.718;2023-05-19T08:50:59;1.88;;;1.15;;
48052;SDS011;33824;51.600;5.718;2023-05-19T08:53:41;5.75;;;1.23;;
48052;SDS011;33824;51.600;5.718;2023-05-19T08:56:15;4.82;;;1.40;;
48052;SDS011;33824;51.600;5.718;2023-05-19T08:58:46;3.00;;;1.00;;
48052;SDS011;33824;51.600;5.718;2023-05-19T09:01:14;4.00;;;0.85;;
48052;SDS011;33824;51.600;5.718;2023-05-19T09:03:43;6.72;;;0.80;;
48052;SDS011;33824;51.600;5.718;2023-05-19T09:06:10;3.70;;;1.00;;
48052;SDS011;33824;51.600;5.718;2023-05-19T09:08:38;2.78;;;1.05;;
48052;SDS011;33824;51.600;5.718;2023-05-19T09:11:04;1.42;;;0.80;;
48052;SDS011;33824;51.600;5.718;2023-05-19T09:13:30;1.70;;;0.65;;
48052;SDS011;33824;51.600;5.718;2023-05-19T09:15:58;3.58;;;0.80;;
48052;SDS011;33824;51.600;5.718;2023-05-19T09:18:24;3.20;;;0.70;;
48052;SDS011;33824;51.600;5.718;2023-05-19T09:20:50;4.45;;;0.80;;
48052;SDS011;33824;51.600;5.718;2023-05-19T09:23:24;2.80;;;0.80;;
48052;SDS011;33824;51.600;5.718;2023-05-19T09:25:52;4.28;;;0.90;;
48052;SDS011;33824;51.600;5.718;2023-05-19T09:28:25;6.93;;;0.68;;
48052;SDS011;33824;51.600;5.718;2023-05-19T09:33:27;1.77;;;0.70;;
48052;SDS011;33824;51.600;5.718;2023-05-19T09:35:53;2.45;;;1.05;;
48052;SDS011;33824;51.600;5.718;2023-05-19T09:38:22;0.90;;;0.45;;
48052;SDS011;33824;51.600;5.718;2023-05-19T09:40:48;2.15;;;0.93;;
48052;SDS011;33824;51.600;5.718;2023-05-19T09:43:15;3.42;;;1.48;;
48052;SDS011;33824;51.600;5.718;2023-05-19T09:45:41;8.95;;;1.48;;
48052;SDS011;33824;51.600;5.718;2023-05-19T09:48:07;2.60;;;0.95;;
48052;SDS011;33824;51.600;5.718;2023-05-19T09:50:32;6.05;;;0.82;;
48052;SDS011;33824;51.600;5.718;2023-05-19T09:53:00;5.68;;;0.75;;
48052;SDS011;33824;51.600;5.718;2023-05-19T09:55:27;4.13;;;0.85;;
48052;SDS011;33824;51.600;5.718;2023-05-19T09:57:56;8.73;;;1.13;;
48052;SDS011;33824;51.600;5.718;2023-05-19T10:00:22;4.43;;;1.00;;
48052;SDS011;33824;51.600;5.718;2023-05-19T10:02:48;2.63;;;0.70;;
48052;SDS011;33824;51.600;5.718;2023-05-19T10:05:15;6.13;;;0.73;;
48052;SDS011;33824;51.600;5.718;2023-05-19T10:07:51;3.33;;;0.70;;
48052;SDS011;33824;51.600;5.718;2023-05-19T10:10:19;3.88;;;0.77;;
48052;SDS011;33824;51.600;5.718;2023-05-19T10:12:46;2.80;;;0.90;;
48052;SDS011;33824;51.600;5.718;2023-05-19T10:15:16;3.92;;;0.80;;
48052;SDS011;33824;51.600;5.718;2023-05-19T10:17:43;5.50;;;0.80;;
48052;SDS011;33824;51.600;5.718;2023-05-19T10:20:12;1.92;;;0.80;;
48052;SDS011;33824;51.600;5.718;2023-05-19T10:22:44;2.35;;;0.70;;
48052;SDS011;33824;51.600;5.718;2023-05-19T10:25:11;3.53;;;0.77;;
48052;SDS011;33824;51.600;5.718;2023-05-19T10:27:43;2.88;;;0.77;;
48052;SDS011;33824;51.600;5.718;2023-05-19T10:30:19;1.02;;;0.52;;
48052;SDS011;33824;51.600;5.718;2023-05-19T10:32:50;6.20;;;0.90;;
48052;SDS011;33824;51.600;5.718;2023-05-19T10:35:22;3.55;;;1.10;;
48052;SDS011;33824;51.600;5.718;2023-05-19T10:38:11;1.52;;;0.80;;
48052;SDS011;33824;51.600;5.718;2023-05-19T10:41:06;1.92;;;0.73;;
48052;SDS011;33824;51.600;5.718;2023-05-19T10:46:28;2.38;;;0.90;;
48052;SDS011;33824;51.600;5.718;2023-05-19T10:48:54;3.42;;;0.93;;
48052;SDS011;33824;51.600;5.718;2023-05-19T10:51:20;2.03;;;0.68;;
48052;SDS011;33824;51.600;5.718;2023-05-19T10:53:54;1.60;;;0.60;;
48052;SDS011;33824;51.600;5.718;2023-05-19T10:56:30;1.77;;;1.00;;
48052;SDS011;33824;51.600;5.718;2023-05-19T10:59:01;5.15;;;1.17;;
48052;SDS011;33824;51.600;5.718;2023-05-19T11:01:33;6.20;;;0.95;;
48052;SDS011;33824;51.600;5.718;2023-05-19T11:04:07;2.80;;;0.90;;
48052;SDS011;33824;51.600;5.718;2023-05-19T11:06:37;3.38;;;0.70;;
48052;SDS011;33824;51.600;5.718;2023-05-19T11:09:12;2.67;;;0.80;;
48052;SDS011;33824;51.600;5.718;2023-05-19T11:11:49;2.58;;;0.82;;
48052;SDS011;33824;51.600;5.718;2023-05-19T11:14:20;5.10;;;0.98;;
48052;SDS011;33824;51.600;5.718;2023-05-19T11:16:51;2.63;;;0.82;;
48052;SDS011;33824;51.600;5.718;2023-05-19T11:21:56;0.90;;;0.60;;
48052;SDS011;33824;51.600;5.718;2023-05-19T11:27:21;1.50;;;0.90;;
48052;SDS011;33824;51.600;5.718;2023-05-19T11:29:53;5.55;;;0.80;;
48052;SDS011;33824;51.600;5.718;2023-05-19T11:32:21;4.80;;;1.08;;
48052;SDS011;33824;51.600;5.718;2023-05-19T11:34:50;3.35;;;1.23;;
48052;SDS011;33824;51.600;5.718;2023-05-19T11:37:17;1.85;;;0.95;;
48052;SDS011;33824;51.600;5.718;2023-05-19T11:39:44;6.45;;;1.42;;
48052;SDS011;33824;51.600;5.718;2023-05-19T11:42:10;1.92;;;0.80;;
48052;SDS011;33824;51.600;5.718;2023-05-19T11:44:36;4.85;;;1.00;;
48052;SDS011;33824;51.600;5.718;2023-05-19T11:47:02;6.03;;;0.90;;
48052;SDS011;33824;51.600;5.718;2023-05-19T11:49:29;7.25;;;1.33;;
48052;SDS011;33824;51.600;5.718;2023-05-19T11:51:54;1.88;;;0.77;;
48052;SDS011;33824;51.600;5.718;2023-05-19T11:54:20;1.98;;;0.73;;
48052;SDS011;33824;51.600;5.718;2023-05-19T11:56:46;2.45;;;0.90;;
48052;SDS011;33824;51.600;5.718;2023-05-19T11:59:11;4.07;;;0.80;;
48052;SDS011;33824;51.600;5.718;2023-05-19T12:01:37;2.67;;;0.75;;
48052;SDS011;33824;51.600;5.718;2023-05-19T12:04:06;9.77;;;0.90;;
48052;SDS011;33824;51.600;5.718;2023-05-19T12:06:32;1.40;;;0.63;;
48052;SDS011;33824;51.600;5.718;2023-05-19T12:08:58;1.85;;;0.65;;
48052;SDS011;33824;51.600;5.718;2023-05-19T12:11:26;3.70;;;0.80;;
48052;SDS011;33824;51.600;5.718;2023-05-19T12:13:59;1.20;;;0.63;;
48052;SDS011;33824;51.600;5.718;2023-05-19T12:16:32;1.70;;;0.60;;
48052;SDS011;33824;51.600;5.718;2023-05-19T12:18:59;4.75;;;1.15;;
48052;SDS011;33824;51.600;5.718;2023-05-19T12:21:25;2.47;;;0.73;;
48052;SDS011;33824;51.600;5.718;2023-05-19T12:23:51;4.90;;;1.88;;
48052;SDS011;33824;51.600;5.718;2023-05-19T12:26:18;1.85;;;0.70;;
48052;SDS011;33824;51.600;5.718;2023-05-19T12:28:46;1.80;;;0.80;;
48052;SDS011;33824;51.600;5.718;2023-05-19T12:31:15;2.35;;;0.98;;
48052;SDS011;33824;51.600;5.718;2023-05-19T12:33:41;3.67;;;0.85;;
48052;SDS011;33824;51.600;5.718;2023-05-19T12:36:07;2.40;;;1.00;;
48052;SDS011;33824;51.600;5.718;2023-05-19T12:38:33;2.33;;;0.90;;
48052;SDS011;33824;51.600;5.718;2023-05-19T12:41:01;5.50;;;1.10;;
48052;SDS011;33824;51.600;5.718;2023-05-19T12:43:27;5.15;;;1.00;;
48052;SDS011;33824;51.600;5.718;2023-05-19T12:45:52;3.38;;;1.00;;
48052;SDS011;33824;51.600;5.718;2023-05-19T12:48:20;5.70;;;1.10;;
48052;SDS011;33824;51.600;5.718;2023-05-19T12:50:46;2.50;;;1.00;;
48052;SDS011;33824;51.600;5.718;2023-05-19T12:53:13;1.23;;;0.68;;
48052;SDS011;33824;51.600;5.718;2023-05-19T12:55:42;3.80;;;1.17;;
48052;SDS011;33824;51.600;5.718;2023-05-19T12:58:09;2.42;;;0.75;;
48052;SDS011;33824;51.600;5.718;2023-05-19T13:00:39;3.55;;;0.80;;
48052;SDS011;33824;51.600;5.718;2023-05-19T13:03:06;2.20;;;0.75;;
48052;SDS011;33824;51.600;5.718;2023-05-19T13:05:37;2.63;;;1.10;;
48052;SDS011;33824;51.600;5.718;2023-05-19T13:08:05;4.45;;;1.70;;
48052;SDS011;33824;51.600;5.718;2023-05-19T13:10:32;3.67;;;0.80;;
48052;SDS011;33824;51.600;5.718;2023-05-19T13:12:59;6.13;;;1.27;;
48052;SDS011;33824;51.600;5.718;2023-05-19T13:15:27;2.75;;;0.90;;
48052;SDS011;33824;51.600;5.718;2023-05-19T13:17:56;0.68;;;0.40;;
48052;SDS011;33824;51.600;5.718;2023-05-19T13:20:22;3.92;;;1.00;;
48052;SDS011;33824;51.600;5.718;2023-05-19T13:22:48;2.35;;;0.93;;
48052;SDS011;33824;51.600;5.718;2023-05-19T13:25:14;1.95;;;0.70;;
48052;SDS011;33824;51.600;5.718;2023-05-19T13:27:40;6.22;;;1.10;;
48052;SDS011;33824;51.600;5.718;2023-05-19T13:30:06;2.85;;;1.08;;
48052;SDS011;33824;51.600;5.718;2023-05-19T13:32:32;1.88;;;0.65;;
48052;SDS011;33824;51.600;5.718;2023-05-19T13:34:58;2.75;;;0.70;;
48052;SDS011;33824;51.600;5.718;2023-05-19T13:37:25;3.13;;;1.10;;
48052;SDS011;33824;51.600;5.718;2023-05-19T13:39:51;2.38;;;0.85;;
48052;SDS011;33824;51.600;5.718;2023-05-19T13:42:16;3.97;;;0.98;;
48052;SDS011;33824;51.600;5.718;2023-05-19T13:44:43;3.15;;;1.13;;
48052;SDS011;33824;51.600;5.718;2023-05-19T13:47:10;4.70;;;1.38;;
48052;SDS011;33824;51.600;5.718;2023-05-19T13:49:35;6.30;;;1.00;;
48052;SDS011;33824;51.600;5.718;2023-05-19T13:52:01;4.57;;;0.77;;
48052;SDS011;33824;51.600;5.718;2023-05-19T13:54:26;3.00;;;1.10;;
48052;SDS011;33824;51.600;5.718;2023-05-19T13:56:52;7.95;;;1.08;;
48052;SDS011;33824;51.600;5.718;2023-05-19T13:59:18;4.75;;;0.85;;
48052;SDS011;33824;51.600;5.718;2023-05-19T14:01:45;3.45;;;0.90;;
48052;SDS011;33824;51.600;5.718;2023-05-19T14:04:12;7.10;;;1.02;;
48052;SDS011;33824;51.600;5.718;2023-05-19T14:06:38;3.45;;;1.00;;
48052;SDS011;33824;51.600;5.718;2023-05-19T14:09:04;3.67;;;1.02;;
48052;SDS011;33824;51.600;5.718;2023-05-19T14:11:31;2.47;;;1.08;;
48052;SDS011;33824;51.600;5.718;2023-05-19T14:13:56;2.47;;;0.90;;
48052;SDS011;33824;51.600;5.718;2023-05-19T14:16:22;3.20;;;0.75;;
48052;SDS011;33824;51.600;5.718;2023-05-19T14:18:50;1.20;;;0.90;;
48052;SDS011;33824;51.600;5.718;2023-05-19T14:21:16;3.45;;;1.15;;
48052;SDS011;33824;51.600;5.718;2023-05-19T14:23:42;3.08;;;0.70;;
48052;SDS011;33824;51.600;5.718;2023-05-19T14:26:07;3.58;;;0.90;;
48052;SDS011;33824;51.600;5.718;2023-05-19T14:28:33;2.33;;;1.17;;
48052;SDS011;33824;51.600;5.718;2023-05-19T14:30:58;2.80;;;1.23;;
48052;SDS011;33824;51.600;5.718;2023-05-19T14:33:24;4.55;;;1.08;;
48052;SDS011;33824;51.600;5.718;2023-05-19T14:35:50;1.33;;;0.80;;
48052;SDS011;33824;51.600;5.718;2023-05-19T14:38:16;3.38;;;1.00;;
48052;SDS011;33824;51.600;5.718;2023-05-19T14:40:44;4.40;;;1.17;;
48052;SDS011;33824;51.600;5.718;2023-05-19T14:43:09;2.13;;;0.80;;
48052;SDS011;33824;51.600;5.718;2023-05-19T14:45:37;3.30;;;1.35;;
48052;SDS011;33824;51.600;5.718;2023-05-19T14:48:02;1.25;;;0.70;;
48052;SDS011;33824;51.600;5.718;2023-05-19T14:50:28;1.13;;;0.68;;
48052;SDS011;33824;51.600;5.718;2023-05-19T14:52:53;5.53;;;1.08;;
48052;SDS011;33824;51.600;5.718;2023-05-19T14:55:19;2.53;;;0.90;;
48052;SDS011;33824;51.600;5.718;2023-05-19T14:57:45;7.18;;;1.17;;
48052;SDS011;33824;51.600;5.718;2023-05-19T15:00:10;2.42;;;0.95;;
48052;SDS011;33824;51.600;5.718;2023-05-19T15:02:36;2.70;;;0.93;;
48052;SDS011;33824;51.600;5.718;2023-05-19T15:05:03;3.55;;;0.85;;
48052;SDS011;33824;51.600;5.718;2023-05-19T15:07:28;2.42;;;0.70;;
48052;SDS011;33824;51.600;5.718;2023-05-19T15:09:54;3.97;;;0.80;;
48052;SDS011;33824;51.600;5.718;2023-05-19T15:12:20;2.15;;;0.98;;